createdAt,value
2017-08-20T00:00:15.493Z,0
2017-08-20T00:01:15.376Z,0
2017-08-20T00:02:15.477Z,0
2017-08-20T00:03:15.425Z,0
2017-08-20T00:04:15.466Z,0
2017-08-20T00:05:15.389Z,0
2017-08-20T00:06:15.378Z,0
2017-08-20T00:07:15.344Z,0
2017-08-20T00:08:15.317Z,0
2017-08-20T00:09:15.310Z,0
2017-08-20T00:10:15.273Z,0
2017-08-20T00:11:15.258Z,0
2017-08-20T00:12:15.256Z,0
2017-08-20T00:13:15.205Z,0
2017-08-20T00:14:15.196Z,0
2017-08-20T00:15:15.175Z,0
2017-08-20T00:16:15.149Z,0
2017-08-20T00:17:15.121Z,0
2017-08-20T00:18:14.800Z,0
2017-08-20T00:19:15.092Z,0
2017-08-20T00:20:15.105Z,0
2017-08-20T00:21:14.728Z,0
2017-08-20T00:22:14.788Z,0
2017-08-20T00:23:14.987Z,0
2017-08-20T00:24:14.957Z,0
2017-08-20T00:25:14.058Z,0
2017-08-20T00:26:14.950Z,0
2017-08-20T00:27:14.602Z,0
2017-08-20T00:28:14.886Z,0
2017-08-20T00:29:14.610Z,0
2017-08-20T00:30:14.544Z,0
2017-08-20T00:31:14.816Z,0
2017-08-20T00:32:15.094Z,0
2017-08-20T00:33:14.769Z,0
2017-08-20T00:34:14.749Z,0
2017-08-20T00:35:14.748Z,0
2017-08-20T00:36:14.725Z,0
2017-08-20T00:37:14.680Z,0
2017-08-20T00:38:14.664Z,0
2017-08-20T00:39:14.635Z,0
2017-08-20T00:40:14.688Z,0
2017-08-20T00:41:14.609Z,0
2017-08-20T00:42:14.602Z,0
2017-08-20T00:43:14.551Z,0
2017-08-20T00:44:14.251Z,0
2017-08-20T00:45:14.504Z,0
2017-08-20T00:46:14.495Z,0
2017-08-20T00:47:14.467Z,0
2017-08-20T00:48:14.440Z,0
2017-08-20T00:49:14.677Z,0
2017-08-20T00:50:14.150Z,0
2017-08-20T00:51:14.429Z,0
2017-08-20T00:52:14.353Z,0
2017-08-20T00:53:14.031Z,0
2017-08-20T00:54:14.021Z,0
2017-08-20T00:55:14.296Z,0
2017-08-20T00:56:14.271Z,0
2017-08-20T00:57:14.239Z,0
2017-08-20T00:58:13.830Z,0
2017-08-20T00:59:14.197Z,0
2017-08-20T01:00:14.183Z,0
2017-08-20T01:01:14.153Z,0
2017-08-20T01:02:14.162Z,0
2017-08-20T01:03:14.114Z,0
2017-08-20T01:04:13.997Z,0
2017-08-20T01:05:14.112Z,0
2017-08-20T01:06:13.747Z,0
2017-08-20T01:07:14.016Z,0
2017-08-20T01:08:14.001Z,0
2017-08-20T01:09:13.685Z,0
2017-08-20T01:10:13.969Z,0
2017-08-20T01:11:13.632Z,0
2017-08-20T01:12:13.606Z,0
2017-08-20T01:13:13.903Z,0
2017-08-20T01:14:13.875Z,0
2017-08-20T01:15:13.861Z,0
2017-08-20T01:16:13.834Z,0
2017-08-20T01:17:13.819Z,0
2017-08-20T01:18:14.000Z,0
2017-08-20T01:19:13.759Z,0
2017-08-20T01:20:13.742Z,0
2017-08-20T01:21:13.415Z,0
2017-08-20T01:22:13.695Z,0
2017-08-20T01:23:13.372Z,0
2017-08-20T01:24:13.659Z,0
2017-08-20T01:25:13.647Z,0
2017-08-20T01:26:13.309Z,0
2017-08-20T01:27:13.580Z,0
2017-08-20T01:28:13.562Z,0
2017-08-20T01:29:13.595Z,0
2017-08-20T01:30:13.522Z,0
2017-08-20T01:31:13.492Z,0
2017-08-20T01:32:13.479Z,0
2017-08-20T01:33:13.458Z,0
2017-08-20T01:34:13.154Z,0
2017-08-20T01:35:13.118Z,0
2017-08-20T01:36:13.391Z,0
2017-08-20T01:37:13.359Z,0
2017-08-20T01:38:13.352Z,0
2017-08-20T01:39:13.538Z,0
2017-08-20T01:40:13.296Z,0
2017-08-20T01:41:13.336Z,0
2017-08-20T01:42:13.262Z,0
2017-08-20T01:43:13.231Z,0
2017-08-20T01:44:13.267Z,0
2017-08-20T01:45:13.233Z,0
2017-08-20T01:46:13.164Z,0
2017-08-20T01:47:13.147Z,0
2017-08-20T01:48:13.133Z,0
2017-08-20T01:49:13.101Z,0
2017-08-20T01:50:13.081Z,0
2017-08-20T01:51:13.052Z,0
2017-08-20T01:52:13.033Z,0
2017-08-20T01:53:13.010Z,0
2017-08-20T01:54:12.703Z,0
2017-08-20T01:55:12.963Z,0
2017-08-20T01:56:13.006Z,0
2017-08-20T01:57:12.925Z,0
2017-08-20T01:58:12.895Z,0
2017-08-20T01:59:12.586Z,0
2017-08-20T02:00:12.877Z,0
2017-08-20T02:01:12.947Z,0
2017-08-20T02:02:12.828Z,0
2017-08-20T02:03:12.788Z,0
2017-08-20T02:05:12.455Z,0
2017-08-20T02:06:12.942Z,0
2017-08-20T02:07:12.724Z,0
2017-08-20T02:08:12.676Z,0
2017-08-20T02:09:12.657Z,0
2017-08-20T02:10:12.646Z,0
2017-08-20T02:11:12.616Z,0
2017-08-20T02:12:12.591Z,0
2017-08-20T02:13:12.571Z,0
2017-08-20T02:14:12.602Z,0
2017-08-20T02:15:12.535Z,0
2017-08-20T02:16:12.506Z,0
2017-08-20T02:17:12.478Z,0
2017-08-20T02:18:12.469Z,0
2017-08-20T02:19:12.442Z,0
2017-08-20T02:20:12.415Z,0
2017-08-20T02:21:12.397Z,0
2017-08-20T02:22:12.408Z,0
2017-08-20T02:23:12.372Z,0
2017-08-20T02:24:12.330Z,0
2017-08-20T02:25:12.312Z,0
2017-08-20T02:26:12.301Z,0
2017-08-20T02:27:11.966Z,0
2017-08-20T02:28:11.953Z,0
2017-08-20T02:29:12.221Z,0
2017-08-20T02:30:12.197Z,0
2017-08-20T02:31:12.180Z,0
2017-08-20T02:32:12.160Z,0
2017-08-20T02:33:12.131Z,0
2017-08-20T02:34:12.110Z,0
2017-08-20T02:35:12.084Z,0
2017-08-20T02:36:12.071Z,0
2017-08-20T02:37:12.032Z,0
2017-08-20T02:38:12.234Z,0
2017-08-20T02:39:11.994Z,0
2017-08-20T02:40:11.671Z,0
2017-08-20T02:41:11.965Z,0
2017-08-20T02:42:11.998Z,0
2017-08-20T02:43:11.974Z,0
2017-08-20T02:44:11.902Z,0
2017-08-20T02:45:11.878Z,0
2017-08-20T02:46:11.879Z,0
2017-08-20T02:47:11.840Z,0
2017-08-20T02:48:11.205Z,0
2017-08-20T02:49:11.796Z,0
2017-08-20T02:50:11.789Z,0
2017-08-20T02:51:11.792Z,0
2017-08-20T02:52:11.719Z,0
2017-08-20T02:53:11.688Z,0
2017-08-20T02:54:11.677Z,0
2017-08-20T02:55:11.651Z,0
2017-08-20T02:56:11.625Z,0
2017-08-20T02:57:11.598Z,0
2017-08-20T02:58:11.332Z,0
2017-08-20T02:59:11.625Z,0
2017-08-20T03:00:11.539Z,0
2017-08-20T03:01:11.517Z,0
2017-08-20T03:02:11.504Z,0
2017-08-20T03:03:11.475Z,0
2017-08-20T03:04:11.499Z,0
2017-08-20T03:05:11.510Z,0
2017-08-20T03:06:11.407Z,0
2017-08-20T03:07:11.382Z,0
2017-08-20T03:08:11.369Z,0
2017-08-20T03:09:11.041Z,0
2017-08-20T03:10:11.313Z,0
2017-08-20T03:11:11.293Z,0
2017-08-20T03:12:10.978Z,0
2017-08-20T03:13:11.276Z,0
2017-08-20T03:14:10.927Z,0
2017-08-20T03:15:11.222Z,0
2017-08-20T03:16:11.185Z,0
2017-08-20T03:17:11.172Z,0
2017-08-20T03:18:11.140Z,0
2017-08-20T03:19:11.030Z,0
2017-08-20T03:20:10.811Z,0
2017-08-20T03:21:11.289Z,0
2017-08-20T03:22:11.060Z,0
2017-08-20T03:23:11.037Z,0
2017-08-20T03:24:11.009Z,0
2017-08-20T03:25:10.992Z,0
2017-08-20T03:26:10.875Z,0
2017-08-20T03:27:10.949Z,0
2017-08-20T03:28:10.924Z,0
2017-08-20T03:29:10.904Z,0
2017-08-20T03:30:10.886Z,0
2017-08-20T03:31:10.882Z,0
2017-08-20T03:32:10.842Z,0
2017-08-20T03:33:10.823Z,0
2017-08-20T03:34:10.797Z,0
2017-08-20T03:35:10.468Z,0
2017-08-20T03:36:10.752Z,0
2017-08-20T03:37:10.730Z,0
2017-08-20T03:38:10.708Z,0
2017-08-20T03:39:10.889Z,0
2017-08-20T03:40:10.758Z,0
2017-08-20T03:41:10.338Z,0
2017-08-20T03:42:10.551Z,0
2017-08-20T03:43:10.299Z,0
2017-08-20T03:44:10.625Z,0
2017-08-20T03:45:10.558Z,0
2017-08-20T03:46:10.527Z,0
2017-08-20T03:47:10.570Z,0
2017-08-20T03:48:10.485Z,0
2017-08-20T03:49:10.464Z,0
2017-08-20T03:50:10.450Z,0
2017-08-20T03:51:10.422Z,0
2017-08-20T03:52:10.399Z,0
2017-08-20T03:53:10.380Z,0
2017-08-20T03:54:10.367Z,0
2017-08-20T03:55:10.402Z,0
2017-08-20T03:56:10.320Z,0
2017-08-20T03:57:09.991Z,0
2017-08-20T03:58:10.294Z,0
2017-08-20T03:59:10.247Z,0
2017-08-20T04:00:10.231Z,0
2017-08-20T04:01:10.201Z,0
2017-08-20T04:02:10.181Z,0
2017-08-20T04:03:10.162Z,0
2017-08-20T04:04:10.140Z,0
2017-08-20T04:05:10.126Z,0
2017-08-20T04:06:10.144Z,0
2017-08-20T04:07:10.081Z,0
2017-08-20T04:08:10.064Z,0
2017-08-20T04:09:09.731Z,0
2017-08-20T04:10:10.009Z,0
2017-08-20T04:11:09.986Z,0
2017-08-20T04:12:09.975Z,0
2017-08-20T04:13:09.941Z,0
2017-08-20T04:14:10.170Z,0
2017-08-20T04:15:09.907Z,0
2017-08-20T04:16:09.864Z,0
2017-08-20T04:17:09.859Z,0
2017-08-20T04:18:09.847Z,0
2017-08-20T04:19:09.813Z,0
2017-08-20T04:20:09.789Z,0
2017-08-20T04:21:09.782Z,5
2017-08-20T04:22:09.951Z,5
2017-08-20T04:23:09.721Z,5
2017-08-20T04:24:09.727Z,5
2017-08-20T04:25:09.378Z,5
2017-08-20T04:26:09.706Z,5
2017-08-20T04:27:09.332Z,5
2017-08-20T04:28:09.664Z,5
2017-08-20T04:29:09.588Z,5
2017-08-20T04:30:09.587Z,5
2017-08-20T04:31:09.553Z,10
2017-08-20T04:32:09.528Z,10
2017-08-20T04:33:09.502Z,10
2017-08-20T04:34:09.491Z,10
2017-08-20T04:35:09.471Z,10
2017-08-20T04:36:09.491Z,10
2017-08-20T04:37:09.416Z,10
2017-08-20T04:38:09.443Z,15
2017-08-20T04:39:09.072Z,15
2017-08-20T04:40:09.053Z,15
2017-08-20T04:41:09.335Z,15
2017-08-20T04:42:09.314Z,20
2017-08-20T04:43:09.287Z,20
2017-08-20T04:44:09.317Z,20
2017-08-20T04:45:09.245Z,25
2017-08-20T04:46:09.244Z,25
2017-08-20T04:47:08.904Z,25
2017-08-20T04:48:09.183Z,25
2017-08-20T04:49:08.912Z,25
2017-08-20T04:50:08.838Z,25
2017-08-20T04:51:09.117Z,30
2017-08-20T04:52:09.086Z,30
2017-08-20T04:53:09.070Z,35
2017-08-20T04:54:08.809Z,35
2017-08-20T04:55:09.032Z,40
2017-08-20T04:56:09.001Z,40
2017-08-20T04:57:08.680Z,45
2017-08-20T04:58:08.961Z,45
2017-08-20T04:59:08.983Z,50
2017-08-20T05:00:08.926Z,50
2017-08-20T05:01:08.901Z,50
2017-08-20T05:02:08.876Z,50
2017-08-20T05:03:08.851Z,45
2017-08-20T05:04:08.523Z,45
2017-08-20T05:05:08.812Z,45
2017-08-20T05:06:08.808Z,50
2017-08-20T05:07:08.463Z,55
2017-08-20T05:08:08.772Z,60
2017-08-20T05:09:08.718Z,65
2017-08-20T05:10:08.714Z,65
2017-08-20T05:11:08.668Z,65
2017-08-20T05:12:08.657Z,60
2017-08-20T05:13:08.623Z,55
2017-08-20T05:14:08.329Z,60
2017-08-20T05:15:08.590Z,65
2017-08-20T05:16:08.578Z,70
2017-08-20T05:17:08.546Z,75
2017-08-20T05:18:08.526Z,80
2017-08-20T05:19:08.507Z,85
2017-08-20T05:20:08.485Z,85
2017-08-20T05:21:08.527Z,90
2017-08-20T05:22:08.135Z,90
2017-08-20T05:23:08.408Z,90
2017-08-20T05:24:08.406Z,85
2017-08-20T05:25:08.078Z,90
2017-08-20T05:26:08.356Z,90
2017-08-20T05:27:08.329Z,90
2017-08-20T05:28:08.314Z,90
2017-08-20T05:29:08.295Z,95
2017-08-20T05:30:08.261Z,95
2017-08-20T05:31:08.245Z,100
2017-08-20T05:32:08.281Z,110
2017-08-20T05:33:08.200Z,115
2017-08-20T05:34:08.181Z,115
2017-08-20T05:35:08.165Z,120
2017-08-20T05:36:08.129Z,125
2017-08-20T05:37:08.115Z,130
2017-08-20T05:38:08.346Z,135
2017-08-20T05:39:08.078Z,135
2017-08-20T05:40:07.759Z,135
2017-08-20T05:41:08.034Z,135
2017-08-20T05:42:08.018Z,135
2017-08-20T05:43:07.995Z,130
2017-08-20T05:44:07.958Z,125
2017-08-20T05:45:07.941Z,115
2017-08-20T05:46:07.932Z,105
2017-08-20T05:47:07.606Z,90
2017-08-20T05:48:07.932Z,90
2017-08-20T05:49:07.620Z,95
2017-08-20T05:50:07.858Z,95
2017-08-20T05:51:07.824Z,110
2017-08-20T05:52:07.795Z,110
2017-08-20T05:53:07.774Z,115
2017-08-20T05:54:07.756Z,120
2017-08-20T05:55:07.743Z,120
2017-08-20T05:56:07.705Z,125
2017-08-20T05:57:07.691Z,125
2017-08-20T05:58:07.667Z,125
2017-08-20T05:59:07.644Z,125
2017-08-20T06:00:07.649Z,125
2017-08-20T06:01:07.600Z,130
2017-08-20T06:02:07.585Z,140
2017-08-20T06:03:07.560Z,150
2017-08-20T06:04:07.534Z,160
2017-08-20T06:05:07.575Z,175
2017-08-20T06:06:07.504Z,180
2017-08-20T06:07:07.478Z,180
2017-08-20T06:08:07.405Z,180
2017-08-20T06:09:07.430Z,190
2017-08-20T06:10:07.411Z,210
2017-08-20T06:11:07.417Z,230
2017-08-20T06:12:07.376Z,250
2017-08-20T06:13:07.343Z,260
2017-08-20T06:14:07.328Z,260
2017-08-20T06:15:07.307Z,260
2017-08-20T06:16:07.286Z,255
2017-08-20T06:17:07.272Z,245
2017-08-20T06:18:07.240Z,240
2017-08-20T06:19:07.222Z,240
2017-08-20T06:20:07.196Z,235
2017-08-20T06:21:07.234Z,230
2017-08-20T06:22:07.158Z,225
2017-08-20T06:23:07.141Z,210
2017-08-20T06:24:07.114Z,200
2017-08-20T06:25:07.091Z,200
2017-08-20T06:26:07.076Z,200
2017-08-20T06:27:07.047Z,200
2017-08-20T06:28:07.032Z,205
2017-08-20T06:29:07.017Z,205
2017-08-20T06:30:06.982Z,210
2017-08-20T06:31:06.977Z,215
2017-08-20T06:32:06.951Z,220
2017-08-20T06:33:06.961Z,220
2017-08-20T06:34:06.907Z,225
2017-08-20T06:35:06.585Z,225
2017-08-20T06:36:06.582Z,230
2017-08-20T06:37:06.840Z,230
2017-08-20T06:38:06.827Z,230
2017-08-20T06:39:06.797Z,230
2017-08-20T06:40:06.491Z,235
2017-08-20T06:41:06.766Z,255
2017-08-20T06:42:08.353Z,270
2017-08-20T06:43:08.495Z,285
2017-08-20T06:44:06.707Z,310
2017-08-20T06:45:06.728Z,355
2017-08-20T06:46:06.771Z,395
2017-08-20T06:47:06.640Z,380
2017-08-20T06:48:06.014Z,560
2017-08-20T06:49:06.290Z,330
2017-08-20T06:50:06.824Z,330
2017-08-20T06:51:06.552Z,285
2017-08-20T06:52:06.243Z,280
2017-08-20T06:53:06.521Z,285
2017-08-20T06:54:06.481Z,300
2017-08-20T06:55:06.482Z,315
2017-08-20T06:56:06.483Z,325
2017-08-20T06:57:06.441Z,400
2017-08-20T06:58:06.424Z,540
2017-08-20T06:59:06.391Z,655
2017-08-20T07:00:06.366Z,670
2017-08-20T07:01:06.359Z,685
2017-08-20T07:02:06.321Z,690
2017-08-20T07:03:06.019Z,545
2017-08-20T07:04:06.284Z,455
2017-08-20T07:05:05.976Z,375
2017-08-20T07:06:06.245Z,365
2017-08-20T07:07:06.249Z,375
2017-08-20T07:08:06.224Z,495
2017-08-20T07:09:05.909Z,605
2017-08-20T07:10:05.891Z,755
2017-08-20T07:11:05.855Z,465
2017-08-20T07:12:06.136Z,645
2017-08-20T07:13:06.120Z,695
2017-08-20T07:14:06.136Z,680
2017-08-20T07:15:06.087Z,740
2017-08-20T07:16:06.066Z,700
2017-08-20T07:17:06.054Z,795
2017-08-20T07:18:06.037Z,800
2017-08-20T07:19:06.017Z,880
2017-08-20T07:20:05.996Z,860
2017-08-20T07:21:06.097Z,830
2017-08-20T07:22:05.969Z,855
2017-08-20T07:23:05.946Z,810
2017-08-20T07:24:05.923Z,430
2017-08-20T07:25:05.938Z,855
2017-08-20T07:26:05.892Z,885
2017-08-20T07:27:05.886Z,900
2017-08-20T07:28:05.906Z,1025
2017-08-20T07:29:05.847Z,915
2017-08-20T07:30:05.820Z,615
2017-08-20T07:31:05.818Z,385
2017-08-20T07:32:05.805Z,660
2017-08-20T07:33:05.782Z,1005
2017-08-20T07:34:05.763Z,980
2017-08-20T07:35:05.752Z,1135
2017-08-20T07:36:05.430Z,440
2017-08-20T07:37:05.911Z,460
2017-08-20T07:38:05.696Z,1035
2017-08-20T07:39:05.385Z,690
2017-08-20T07:40:05.388Z,610
2017-08-20T07:41:05.365Z,505
2017-08-20T07:42:05.845Z,1080
2017-08-20T07:43:05.676Z,830
2017-08-20T07:44:05.673Z,1090
2017-08-20T07:45:05.586Z,780
2017-08-20T07:46:05.578Z,550
2017-08-20T07:47:05.568Z,1100
2017-08-20T07:48:05.564Z,1160
2017-08-20T07:49:04.936Z,575
2017-08-20T07:50:05.525Z,850
2017-08-20T07:51:05.544Z,395
2017-08-20T07:52:05.499Z,1090
2017-08-20T07:53:05.474Z,350
2017-08-20T07:54:05.546Z,350
2017-08-20T07:55:05.653Z,970
2017-08-20T07:56:05.425Z,510
2017-08-20T07:57:05.434Z,1275
2017-08-20T07:58:05.455Z,1335
2017-08-20T07:59:05.461Z,1305
2017-08-20T08:00:05.423Z,1345
2017-08-20T08:01:05.469Z,615
2017-08-20T08:02:05.384Z,735
2017-08-20T08:03:05.440Z,1390
2017-08-20T08:04:05.372Z,1280
2017-08-20T08:05:05.300Z,370
2017-08-20T08:06:05.149Z,850
2017-08-20T08:07:05.321Z,665
2017-08-20T08:08:05.005Z,365
2017-08-20T08:09:05.666Z,1165
2017-08-20T08:10:05.231Z,1405
2017-08-20T08:11:05.252Z,490
2017-08-20T08:12:04.951Z,1445
2017-08-20T08:13:05.175Z,1480
2017-08-20T08:14:04.865Z,1465
2017-08-20T08:15:05.171Z,1455
2017-08-20T08:16:05.168Z,1460
2017-08-20T08:17:04.851Z,1500
2017-08-20T08:18:05.117Z,1520
2017-08-20T08:19:05.122Z,1525
2017-08-20T08:20:05.097Z,1550
2017-08-20T08:21:05.078Z,1525
2017-08-20T08:22:05.180Z,1570
2017-08-20T08:23:05.050Z,1035
2017-08-20T08:24:05.094Z,490
2017-08-20T08:25:05.025Z,420
2017-08-20T08:26:05.026Z,1600
2017-08-20T08:27:05.025Z,1645
2017-08-20T08:28:04.993Z,345
2017-08-20T08:29:04.978Z,1040
2017-08-20T08:30:04.963Z,1670
2017-08-20T08:31:05.014Z,390
2017-08-20T08:32:04.649Z,1460
2017-08-20T08:33:04.643Z,530
2017-08-20T08:34:04.937Z,1455
2017-08-20T08:35:04.900Z,1420
2017-08-20T08:36:04.946Z,1330
2017-08-20T08:37:04.882Z,1400
2017-08-20T08:38:04.866Z,1385
2017-08-20T08:39:04.856Z,1355
2017-08-20T08:40:05.102Z,1470
2017-08-20T08:41:04.832Z,1490
2017-08-20T08:42:04.825Z,1500
2017-08-20T08:43:04.817Z,1500
2017-08-20T08:44:04.810Z,1565
2017-08-20T08:45:04.794Z,1605
2017-08-20T08:46:04.830Z,1565
2017-08-20T08:47:04.770Z,1600
2017-08-20T08:48:04.770Z,1650
2017-08-20T08:49:04.466Z,1630
2017-08-20T08:50:04.762Z,1290
2017-08-20T08:51:04.761Z,1660
2017-08-20T08:52:04.466Z,530
2017-08-20T08:53:04.714Z,1575
2017-08-20T08:54:04.696Z,1315
2017-08-20T08:55:04.702Z,1215
2017-08-20T08:56:04.742Z,1185
2017-08-20T08:57:04.671Z,1140
2017-08-20T08:58:04.655Z,1350
2017-08-20T08:59:04.358Z,1440
2017-08-20T09:00:04.640Z,1335
2017-08-20T09:01:04.635Z,1480
2017-08-20T09:02:04.836Z,1445
2017-08-20T09:03:04.618Z,1480
2017-08-20T09:04:04.611Z,1560
2017-08-20T09:05:04.618Z,345
2017-08-20T09:06:04.589Z,430
2017-08-20T09:07:04.268Z,510
2017-08-20T09:08:04.591Z,425
2017-08-20T09:09:04.550Z,395
2017-08-20T09:10:04.460Z,360
2017-08-20T09:11:04.245Z,405
2017-08-20T09:12:04.518Z,1570
2017-08-20T09:13:04.198Z,1640
2017-08-20T09:14:03.887Z,1635
2017-08-20T09:15:04.506Z,1620
2017-08-20T09:16:04.477Z,1645
2017-08-20T09:17:04.157Z,1780
2017-08-20T09:18:04.449Z,1725
2017-08-20T09:19:04.475Z,1700
2017-08-20T09:20:04.430Z,1740
2017-08-20T09:21:04.488Z,960
2017-08-20T09:22:04.398Z,1750
2017-08-20T09:23:04.089Z,1400
2017-08-20T09:24:04.139Z,1755
2017-08-20T09:25:04.366Z,1280
2017-08-20T09:26:04.408Z,515
2017-08-20T09:27:04.346Z,500
2017-08-20T09:28:04.337Z,640
2017-08-20T09:29:04.323Z,510
2017-08-20T09:30:04.302Z,415
2017-08-20T09:31:03.998Z,1565
2017-08-20T09:32:04.287Z,1075
2017-08-20T09:33:04.326Z,480
2017-08-20T09:34:04.271Z,1555
2017-08-20T09:35:03.959Z,500
2017-08-20T09:36:03.945Z,630
2017-08-20T09:37:18.829Z,625
2017-08-20T09:38:04.206Z,1380
2017-08-20T09:39:04.196Z,1910
2017-08-20T09:40:03.934Z,830
2017-08-20T09:41:04.170Z,1805
2017-08-20T09:42:04.254Z,650
2017-08-20T09:43:04.206Z,545
2017-08-20T09:44:04.186Z,305
2017-08-20T09:45:04.124Z,335
2017-08-20T09:46:03.800Z,355
2017-08-20T09:47:04.106Z,365
2017-08-20T09:48:03.980Z,390
2017-08-20T09:49:04.077Z,410
2017-08-20T09:50:04.053Z,410
2017-08-20T09:51:04.037Z,430
2017-08-20T09:52:04.023Z,405
2017-08-20T09:53:04.004Z,410
2017-08-20T09:54:03.999Z,425
2017-08-20T09:55:03.977Z,480
2017-08-20T09:56:03.974Z,500
2017-08-20T09:57:03.937Z,570
2017-08-20T09:58:03.636Z,1860
2017-08-20T09:59:03.912Z,605
2017-08-20T10:00:03.921Z,1870
2017-08-20T10:01:18.501Z,1805
2017-08-20T10:02:03.978Z,1880
2017-08-20T10:03:03.864Z,1795
2017-08-20T10:04:03.885Z,830
2017-08-20T10:05:03.824Z,1875
2017-08-20T10:06:03.809Z,575
2017-08-20T10:07:03.802Z,1990
2017-08-20T10:08:03.476Z,865
2017-08-20T10:09:03.770Z,1305
2017-08-20T10:10:03.753Z,595
2017-08-20T10:11:03.440Z,500
2017-08-20T10:12:03.728Z,460
2017-08-20T10:13:03.414Z,425
2017-08-20T10:14:03.696Z,395
2017-08-20T10:15:03.455Z,345
2017-08-20T10:16:03.374Z,280
2017-08-20T10:17:03.719Z,310
2017-08-20T10:18:03.640Z,360
2017-08-20T10:19:03.642Z,370
2017-08-20T10:20:03.619Z,380
2017-08-20T10:21:03.302Z,390
2017-08-20T10:22:03.642Z,420
2017-08-20T10:23:03.265Z,440
2017-08-20T10:24:03.550Z,435
2017-08-20T10:25:03.534Z,430
2017-08-20T10:26:03.541Z,395
2017-08-20T10:27:03.501Z,410
2017-08-20T10:28:03.486Z,330
2017-08-20T10:29:03.470Z,280
2017-08-20T10:30:03.453Z,260
2017-08-20T10:31:03.443Z,220
2017-08-20T10:32:03.412Z,210
2017-08-20T10:33:03.406Z,205
2017-08-20T10:34:03.384Z,215
2017-08-20T10:35:03.077Z,230
2017-08-20T10:36:03.100Z,245
2017-08-20T10:37:03.035Z,255
2017-08-20T10:38:03.323Z,255
2017-08-20T10:39:03.298Z,290
2017-08-20T10:40:03.283Z,335
2017-08-20T10:41:03.269Z,375
2017-08-20T10:42:03.253Z,435
2017-08-20T10:43:03.231Z,490
2017-08-20T10:44:03.289Z,525
2017-08-20T10:45:02.913Z,555
2017-08-20T10:46:02.932Z,585
2017-08-20T10:47:03.156Z,610
2017-08-20T10:48:02.841Z,650
2017-08-20T10:49:02.845Z,600
2017-08-20T10:50:03.116Z,500
2017-08-20T10:51:03.081Z,545
2017-08-20T10:52:03.069Z,580
2017-08-20T10:53:02.745Z,620
2017-08-20T10:54:02.730Z,540
2017-08-20T10:55:02.705Z,470
2017-08-20T10:56:03.034Z,420
2017-08-20T10:57:02.975Z,355
2017-08-20T10:58:03.021Z,320
2017-08-20T10:59:02.942Z,350
2017-08-20T11:00:02.970Z,340
2017-08-20T11:01:02.901Z,345
2017-08-20T11:02:02.588Z,350
2017-08-20T11:03:02.551Z,335
2017-08-20T11:04:02.544Z,365
2017-08-20T11:05:03.060Z,400
2017-08-20T11:06:02.807Z,420
2017-08-20T11:07:02.784Z,430
2017-08-20T11:08:02.781Z,440
2017-08-20T11:09:02.757Z,440
2017-08-20T11:10:02.782Z,460
2017-08-20T11:11:02.715Z,505
2017-08-20T11:12:02.393Z,500
2017-08-20T11:13:02.701Z,490
2017-08-20T11:14:02.351Z,465
2017-08-20T11:15:02.676Z,460
2017-08-20T11:16:02.351Z,450
2017-08-20T11:17:02.847Z,435
2017-08-20T11:18:02.600Z,425
2017-08-20T11:19:02.264Z,425
2017-08-20T11:20:02.554Z,420
2017-08-20T11:21:02.223Z,410
2017-08-20T11:22:02.510Z,395
2017-08-20T11:23:02.505Z,405
2017-08-20T11:24:02.487Z,460
2017-08-20T11:25:02.464Z,430
2017-08-20T11:26:02.440Z,395
2017-08-20T11:27:02.423Z,435
2017-08-20T11:28:01.840Z,465
2017-08-20T11:29:02.087Z,480
2017-08-20T11:30:02.379Z,480
2017-08-20T11:31:02.407Z,400
2017-08-20T11:32:02.336Z,380
2017-08-20T11:33:02.328Z,340
2017-08-20T11:34:01.998Z,340
2017-08-20T11:35:02.274Z,355
2017-08-20T11:36:02.712Z,370
2017-08-20T11:37:02.248Z,415
2017-08-20T11:38:02.268Z,455
2017-08-20T11:39:01.918Z,455
2017-08-20T11:40:01.888Z,460
2017-08-20T11:41:02.182Z,470
2017-08-20T11:42:02.163Z,490
2017-08-20T11:43:02.142Z,495
2017-08-20T11:44:01.817Z,500
2017-08-20T11:45:02.105Z,465
2017-08-20T11:46:02.079Z,445
2017-08-20T11:47:02.119Z,415
2017-08-20T11:48:02.058Z,405
2017-08-20T11:49:02.039Z,415
2017-08-20T11:50:01.704Z,465
2017-08-20T11:51:01.933Z,485
2017-08-20T11:52:01.977Z,505
2017-08-20T11:53:01.992Z,525
2017-08-20T11:54:01.999Z,525
2017-08-20T11:55:01.630Z,545
2017-08-20T11:56:01.901Z,525
2017-08-20T11:57:01.930Z,480
2017-08-20T11:58:01.861Z,445
2017-08-20T11:59:01.605Z,425
2017-08-20T12:00:02.130Z,390
2017-08-20T12:01:01.812Z,365
2017-08-20T12:02:01.508Z,375
2017-08-20T12:03:01.797Z,370
2017-08-20T12:04:01.773Z,390
2017-08-20T12:05:01.758Z,435
2017-08-20T12:06:01.936Z,505
2017-08-20T12:07:01.408Z,555
2017-08-20T12:08:01.752Z,585
2017-08-20T12:09:01.664Z,625
2017-08-20T12:10:01.660Z,645
2017-08-20T12:11:01.628Z,640
2017-08-20T12:12:01.629Z,630
2017-08-20T12:13:01.602Z,615
2017-08-20T12:14:01.581Z,625
2017-08-20T12:15:01.572Z,625
2017-08-20T12:16:01.570Z,625
2017-08-20T12:17:01.537Z,620
2017-08-20T12:18:01.506Z,610
2017-08-20T12:19:01.535Z,585
2017-08-20T12:20:01.484Z,520
2017-08-20T12:21:01.469Z,485
2017-08-20T12:22:01.491Z,500
2017-08-20T12:23:01.022Z,490
2017-08-20T12:24:01.408Z,450
2017-08-20T12:25:01.451Z,420
2017-08-20T12:26:01.381Z,440
2017-08-20T12:27:01.364Z,475
2017-08-20T12:28:01.340Z,495
2017-08-20T12:29:01.334Z,530
2017-08-20T12:30:01.421Z,485
2017-08-20T12:31:01.299Z,435
2017-08-20T12:32:00.976Z,470
2017-08-20T12:33:01.459Z,455
2017-08-20T12:34:01.284Z,365
2017-08-20T12:35:01.218Z,295
2017-08-20T12:36:00.913Z,250
2017-08-20T12:37:00.901Z,275
2017-08-20T12:38:01.179Z,265
2017-08-20T12:39:01.156Z,235
2017-08-20T12:40:01.135Z,260
2017-08-20T12:41:01.120Z,325
2017-08-20T12:42:01.101Z,370
2017-08-20T12:43:01.088Z,410
2017-08-20T12:44:01.067Z,420
2017-08-20T12:45:01.055Z,420
2017-08-20T12:46:01.030Z,430
2017-08-20T12:47:01.069Z,440
2017-08-20T12:48:01.005Z,455
2017-08-20T12:49:00.678Z,470
2017-08-20T12:50:00.969Z,495
2017-08-20T12:51:00.945Z,520
2017-08-20T12:52:01.134Z,540
2017-08-20T12:53:00.916Z,535
2017-08-20T12:54:00.650Z,530
2017-08-20T12:55:00.580Z,525
2017-08-20T12:56:00.568Z,495
2017-08-20T12:57:00.890Z,455
2017-08-20T12:58:00.811Z,445
2017-08-20T12:59:00.506Z,435
2017-08-20T13:00:00.481Z,430
2017-08-20T13:01:15.069Z,400
2017-08-20T13:02:00.803Z,370
2017-08-20T13:03:00.734Z,335
2017-08-20T13:05:00.725Z,300
2017-08-20T13:06:00.670Z,285
2017-08-20T13:07:00.351Z,270
2017-08-20T13:08:00.371Z,275
2017-08-20T13:09:00.638Z,270
2017-08-20T13:10:00.610Z,285
2017-08-20T13:11:00.625Z,305
2017-08-20T13:12:00.274Z,335
2017-08-20T13:13:00.554Z,360
2017-08-20T13:14:00.526Z,385
2017-08-20T13:15:00.206Z,420
2017-08-20T13:16:00.522Z,445
2017-08-20T13:17:00.484Z,440
2017-08-20T13:18:00.162Z,435
2017-08-20T13:19:00.489Z,430
2017-08-20T13:20:00.475Z,430
2017-08-20T13:21:00.415Z,435
2017-08-20T13:22:00.080Z,435
2017-08-20T13:23:00.076Z,435
2017-08-20T13:24:00.346Z,430
2017-08-20T13:25:00.334Z,425
2017-08-20T13:26:00.313Z,425
2017-08-20T13:26:59.931Z,445
2017-08-20T13:28:00.013Z,450
2017-08-20T13:28:59.971Z,460
2017-08-20T13:29:59.955Z,465
2017-08-20T13:31:00.235Z,470
2017-08-20T13:32:00.215Z,490
2017-08-20T13:32:59.889Z,495
2017-08-20T13:33:59.600Z,485
2017-08-20T13:35:00.153Z,480
2017-08-20T13:35:59.834Z,475
2017-08-20T13:36:59.814Z,485
2017-08-20T13:37:59.491Z,470
2017-08-20T13:39:00.078Z,475
2017-08-20T13:39:59.774Z,465
2017-08-20T13:41:00.037Z,460
2017-08-20T13:42:00.034Z,465
2017-08-20T13:43:00.013Z,460
2017-08-20T13:43:59.698Z,450
2017-08-20T13:45:00.004Z,445
2017-08-20T13:45:59.397Z,440
2017-08-20T13:47:14.569Z,440
2017-08-20T13:47:59.924Z,435
2017-08-20T13:48:59.991Z,425
2017-08-20T13:49:59.898Z,410
2017-08-20T13:51:00.310Z,380
2017-08-20T13:51:59.856Z,355
2017-08-20T13:52:59.573Z,350
2017-08-20T13:53:59.814Z,350
2017-08-20T13:54:59.499Z,350
2017-08-20T13:55:59.532Z,350
2017-08-20T13:56:59.461Z,325
2017-08-20T13:57:59.794Z,295
2017-08-20T13:58:59.739Z,285
2017-08-20T13:59:59.714Z,280
2017-08-20T14:00:59.690Z,290
2017-08-20T14:01:59.405Z,290
2017-08-20T14:02:59.658Z,275
2017-08-20T14:03:59.689Z,240
2017-08-20T14:04:59.318Z,200